TVF81NA LEMH-LFPO
Flight info
| Callsign | TVF81NA |
|---|---|
| Flight time | 1h 37m |
| Altitude | 34000 |
| Route | MEROS DCT LAPIT DCT CHELY DCT LUMAS DCT SOFFY DCT MRM DCT MTL DCT ETREK DCT MADOT DCT MOPEM DCT PIBAT |
| Aircraft | B738/M-SDE2E3FGHIRWXY/LB1 |
Departure
| Time | 2026-05-04 12:11 |
|---|---|
| Airport | Menorca Airport (LEMH) |
Arrival
| Time | 2026-05-04 13:49 |
|---|---|
| Airport | Paris-Orly Airport (LFPO) |
| Time | Latitude | Longitude | Altitude | Speed | Heading |
|---|---|---|---|---|---|
| 2026-05-04 11:44 | 39.86425 | 4.22392 | 285 ft | 0 kts | 98° |
| 2026-05-04 12:01 | 39.86426 | 4.22381 | 287 ft | 4 kts | 97° |
| 2026-05-04 12:02 | 39.86406 | 4.22304 | 289 ft | 16 kts | 9° |
| 2026-05-04 12:07 | 39.86417 | 4.22306 | 289 ft | 8 kts | 9° |
| 2026-05-04 12:07 | 39.86483 | 4.22319 | 288 ft | 10 kts | 8° |
| 2026-05-04 12:07 | 39.86535 | 4.22274 | 293 ft | 10 kts | 285° |
| 2026-05-04 12:07 | 39.86553 | 4.22187 | 292 ft | 10 kts | 310° |
| 2026-05-04 12:08 | 39.86622 | 4.22178 | 294 ft | 13 kts | 7° |
| 2026-05-04 12:08 | 39.86721 | 4.22198 | 297 ft | 15 kts | 9° |
| 2026-05-04 12:08 | 39.86821 | 4.22219 | 301 ft | 14 kts | 9° |
| 2026-05-04 12:08 | 39.86915 | 4.22239 | 307 ft | 14 kts | 9° |
| 2026-05-04 12:09 | 39.87006 | 4.22257 | 301 ft | 13 kts | 8° |
| 2026-05-04 12:09 | 39.87094 | 4.22275 | 304 ft | 13 kts | 8° |
| 2026-05-04 12:09 | 39.87183 | 4.22293 | 308 ft | 13 kts | 9° |
| 2026-05-04 12:09 | 39.87275 | 4.22313 | 309 ft | 14 kts | 9° |
| 2026-05-04 12:10 | 39.87366 | 4.22312 | 312 ft | 13 kts | 328° |
| 2026-05-04 12:10 | 39.87391 | 4.22192 | 310 ft | 16 kts | 261° |
| 2026-05-04 12:10 | 39.87314 | 4.22084 | 309 ft | 18 kts | 195° |
| 2026-05-04 12:10 | 39.87174 | 4.22053 | 308 ft | 30 kts | 190° |
| 2026-05-04 12:11 | 39.86704 | 4.21957 | 302 ft | 104 kts | 188° |
| 2026-05-04 12:11 | 39.85795 | 4.21764 | 449 ft | 149 kts | 189° |
| 2026-05-04 12:11 | 39.84721 | 4.21537 | 1088 ft | 157 kts | 189° |
| 2026-05-04 12:11 | 39.83690 | 4.21339 | 2132 ft | 148 kts | 190° |
| 2026-05-04 12:12 | 39.82596 | 4.21117 | 2576 ft | 173 kts | 191° |
| 2026-05-04 12:12 | 39.81299 | 4.20853 | 2852 ft | 199 kts | 191° |
| 2026-05-04 12:12 | 39.79873 | 4.20554 | 3150 ft | 218 kts | 191° |
| 2026-05-04 12:12 | 39.78342 | 4.20215 | 3609 ft | 228 kts | 192° |
| 2026-05-04 12:13 | 39.76700 | 4.20241 | 3971 ft | 254 kts | 163° |
| 2026-05-04 12:14 | 39.80372 | 4.34697 | 9080 ft | 308 kts | 29° |
| 2026-05-04 12:15 | 39.82307 | 4.35905 | 9833 ft | 310 kts | 18° |
| 2026-05-04 12:15 | 39.84403 | 4.36645 | 10375 ft | 319 kts | 7° |
| 2026-05-04 12:15 | 39.86687 | 4.36875 | 10576 ft | 338 kts | 356° |
| 2026-05-04 12:15 | 39.89070 | 4.36771 | 11093 ft | 347 kts | 356° |
| 2026-05-04 12:16 | 39.91499 | 4.36756 | 11833 ft | 349 kts | 358° |
| 2026-05-04 12:16 | 39.93938 | 4.36773 | 12597 ft | 352 kts | 358° |
| 2026-05-04 12:16 | 39.96397 | 4.36793 | 13344 ft | 355 kts | 358° |
| 2026-05-04 12:16 | 39.98879 | 4.36807 | 14089 ft | 358 kts | 358° |
| 2026-05-04 12:17 | 40.01384 | 4.36813 | 14789 ft | 361 kts | 357° |
| 2026-05-04 12:17 | 40.03909 | 4.36814 | 15507 ft | 364 kts | 356° |
| 2026-05-04 12:17 | 40.06453 | 4.36811 | 16229 ft | 367 kts | 356° |
| 2026-05-04 12:17 | 40.09019 | 4.36805 | 16954 ft | 370 kts | 356° |
| 2026-05-04 12:18 | 40.11608 | 4.36799 | 17653 ft | 374 kts | 356° |
| 2026-05-04 12:18 | 40.14223 | 4.36791 | 18340 ft | 377 kts | 355° |
| 2026-05-04 12:18 | 40.16861 | 4.36784 | 18921 ft | 381 kts | 355° |
| 2026-05-04 12:18 | 40.19533 | 4.36776 | 19473 ft | 386 kts | 355° |
| 2026-05-04 12:19 | 40.22238 | 4.36767 | 20029 ft | 391 kts | 355° |
| 2026-05-04 12:19 | 40.24971 | 4.36760 | 20587 ft | 395 kts | 354° |
| 2026-05-04 12:19 | 40.27733 | 4.36752 | 21144 ft | 399 kts | 354° |
| 2026-05-04 12:19 | 40.30523 | 4.36745 | 21688 ft | 403 kts | 354° |
| 2026-05-04 12:20 | 40.33344 | 4.36738 | 22231 ft | 407 kts | 354° |
| 2026-05-04 12:20 | 40.36190 | 4.36730 | 22760 ft | 411 kts | 353° |
| 2026-05-04 12:20 | 40.39065 | 4.36723 | 23297 ft | 415 kts | 353° |
| 2026-05-04 12:20 | 40.41967 | 4.36716 | 23770 ft | 419 kts | 353° |
| 2026-05-04 12:21 | 40.44891 | 4.36709 | 24192 ft | 423 kts | 353° |
| 2026-05-04 12:21 | 40.47810 | 4.36701 | 24610 ft | 426 kts | 353° |
| 2026-05-04 12:21 | 40.50793 | 4.36824 | 25010 ft | 435 kts | 0° |
| 2026-05-04 12:21 | 40.53816 | 4.37434 | 25414 ft | 442 kts | 4° |
| 2026-05-04 12:22 | 40.56851 | 4.38174 | 25813 ft | 446 kts | 5° |
| 2026-05-04 12:22 | 40.59918 | 4.38953 | 26204 ft | 450 kts | 5° |
| 2026-05-04 12:22 | 40.63008 | 4.39732 | 26582 ft | 454 kts | 5° |
| 2026-05-04 12:22 | 40.66124 | 4.40501 | 26974 ft | 457 kts | 5° |
| 2026-05-04 12:23 | 40.69266 | 4.41262 | 27350 ft | 461 kts | 4° |
| 2026-05-04 12:23 | 40.72433 | 4.42020 | 27714 ft | 464 kts | 4° |
| 2026-05-04 12:23 | 40.75623 | 4.42779 | 28071 ft | 468 kts | 4° |
| 2026-05-04 12:23 | 40.78840 | 4.43545 | 28412 ft | 471 kts | 4° |
| 2026-05-04 12:24 | 40.82081 | 4.44319 | 28756 ft | 475 kts | 4° |
| 2026-05-04 12:24 | 40.85344 | 4.45100 | 29091 ft | 478 kts | 4° |
| 2026-05-04 12:24 | 40.88630 | 4.45886 | 29437 ft | 481 kts | 4° |
| 2026-05-04 12:24 | 40.91933 | 4.46682 | 29806 ft | 484 kts | 4° |
| 2026-05-04 12:25 | 40.95245 | 4.47490 | 30226 ft | 484 kts | 4° |
| 2026-05-04 12:25 | 40.98546 | 4.48301 | 30720 ft | 481 kts | 4° |
| 2026-05-04 12:25 | 41.01827 | 4.49109 | 31203 ft | 479 kts | 4° |
| 2026-05-04 12:25 | 41.05098 | 4.49911 | 31608 ft | 478 kts | 4° |
| 2026-05-04 12:26 | 41.08372 | 4.50712 | 31967 ft | 478 kts | 4° |
| 2026-05-04 12:26 | 41.11642 | 4.51509 | 32330 ft | 478 kts | 4° |
| 2026-05-04 12:26 | 41.14912 | 4.52306 | 32729 ft | 477 kts | 4° |
| 2026-05-04 12:26 | 41.18171 | 4.53101 | 33125 ft | 476 kts | 3° |
| 2026-05-04 12:27 | 41.21421 | 4.53896 | 33518 ft | 475 kts | 3° |
| 2026-05-04 12:27 | 41.24670 | 4.54691 | 33888 ft | 474 kts | 3° |
| 2026-05-04 12:27 | 41.31194 | 4.56286 | 33991 ft | 479 kts | 3° |
| 2026-05-04 12:28 | 41.37723 | 4.57894 | 33973 ft | 473 kts | 3° |
| 2026-05-04 12:28 | 41.44176 | 4.59487 | 33993 ft | 471 kts | 3° |
| 2026-05-04 12:29 | 41.50589 | 4.61066 | 33995 ft | 472 kts | 3° |
| 2026-05-04 12:29 | 41.57043 | 4.62661 | 33992 ft | 472 kts | 3° |
| 2026-05-04 12:30 | 41.63502 | 4.64263 | 33990 ft | 472 kts | 3° |
| 2026-05-04 12:30 | 41.69968 | 4.65869 | 33992 ft | 472 kts | 3° |
| 2026-05-04 12:31 | 41.76404 | 4.67747 | 33989 ft | 476 kts | 8° |
| 2026-05-04 12:31 | 41.82776 | 4.70257 | 33988 ft | 477 kts | 11° |
| 2026-05-04 12:32 | 41.92303 | 4.74131 | 34006 ft | 476 kts | 10° |
| 2026-05-04 12:33 | 41.98653 | 4.76652 | 33999 ft | 475 kts | 10° |
| 2026-05-04 12:33 | 42.04985 | 4.79150 | 33985 ft | 474 kts | 9° |
| 2026-05-04 12:34 | 42.11311 | 4.81648 | 34023 ft | 474 kts | 9° |
| 2026-05-04 12:34 | 42.16589 | 4.83735 | 34016 ft | 476 kts | 10° |
| 2026-05-04 12:35 | 42.22936 | 4.86255 | 33986 ft | 474 kts | 10° |
| 2026-05-04 12:35 | 42.29239 | 4.88766 | 33986 ft | 471 kts | 10° |
| 2026-05-04 12:36 | 42.35503 | 4.91264 | 33998 ft | 468 kts | 10° |
| 2026-05-04 12:36 | 42.41741 | 4.93755 | 33995 ft | 467 kts | 10° |
| 2026-05-04 12:37 | 42.47965 | 4.96245 | 33998 ft | 466 kts | 10° |
| 2026-05-04 12:37 | 42.54142 | 4.98722 | 34009 ft | 467 kts | 10° |
| 2026-05-04 12:38 | 42.60368 | 5.01224 | 34009 ft | 467 kts | 10° |
| 2026-05-04 12:38 | 42.66601 | 5.03735 | 34009 ft | 467 kts | 10° |
| 2026-05-04 12:39 | 42.72828 | 5.06248 | 34008 ft | 467 kts | 10° |
| 2026-05-04 12:39 | 42.79063 | 5.08770 | 34018 ft | 468 kts | 10° |
| 2026-05-04 12:40 | 42.85313 | 5.11304 | 34022 ft | 469 kts | 11° |
| 2026-05-04 12:40 | 42.91576 | 5.13848 | 34024 ft | 471 kts | 11° |
| 2026-05-04 12:41 | 42.97856 | 5.16407 | 34012 ft | 470 kts | 11° |
| 2026-05-04 12:41 | 43.04104 | 5.18953 | 34010 ft | 467 kts | 11° |
| 2026-05-04 12:42 | 43.10290 | 5.21452 | 34012 ft | 466 kts | 11° |
| 2026-05-04 12:42 | 43.15494 | 5.23556 | 34007 ft | 465 kts | 11° |
| 2026-05-04 12:43 | 43.19691 | 5.25258 | 34022 ft | 464 kts | 11° |
| 2026-05-04 12:43 | 43.25889 | 5.27780 | 34013 ft | 464 kts | 11° |
| 2026-05-04 12:44 | 43.32077 | 5.30301 | 34027 ft | 464 kts | 11° |
| 2026-05-04 12:44 | 43.35198 | 5.31302 | 34010 ft | 457 kts | 0° |
| 2026-05-04 12:44 | 43.38331 | 5.31482 | 34039 ft | 447 kts | 349° |
| 2026-05-04 12:45 | 43.44281 | 5.29806 | 34045 ft | 431 kts | 333° |
| 2026-05-04 12:45 | 43.49964 | 5.27138 | 34027 ft | 432 kts | 333° |
| 2026-05-04 12:46 | 43.55662 | 5.24453 | 34023 ft | 434 kts | 333° |
| 2026-05-04 12:46 | 43.61400 | 5.21797 | 34024 ft | 436 kts | 333° |
| 2026-05-04 12:47 | 43.67168 | 5.19149 | 34026 ft | 438 kts | 334° |
| 2026-05-04 12:47 | 43.72958 | 5.16493 | 34019 ft | 439 kts | 334° |
| 2026-05-04 12:48 | 43.78726 | 5.13843 | 34023 ft | 440 kts | 334° |
| 2026-05-04 12:48 | 43.84544 | 5.11160 | 34026 ft | 442 kts | 334° |
| 2026-05-04 12:49 | 43.90385 | 5.08462 | 34031 ft | 442 kts | 334° |
| 2026-05-04 12:49 | 43.96231 | 5.05757 | 34028 ft | 443 kts | 334° |
| 2026-05-04 12:50 | 44.02069 | 5.03050 | 34017 ft | 442 kts | 334° |
| 2026-05-04 12:50 | 44.07896 | 5.00342 | 34020 ft | 441 kts | 334° |
| 2026-05-04 12:51 | 44.13701 | 4.97639 | 34024 ft | 439 kts | 334° |
| 2026-05-04 12:51 | 44.19476 | 4.94944 | 34024 ft | 437 kts | 334° |
| 2026-05-04 12:52 | 44.25226 | 4.92254 | 34030 ft | 435 kts | 334° |
| 2026-05-04 12:52 | 44.30961 | 4.89564 | 34022 ft | 434 kts | 334° |
| 2026-05-04 12:53 | 44.36688 | 4.86874 | 34030 ft | 434 kts | 334° |
| 2026-05-04 12:53 | 44.42411 | 4.84181 | 34031 ft | 434 kts | 335° |
| 2026-05-04 12:54 | 44.48144 | 4.81477 | 34039 ft | 436 kts | 335° |
| 2026-05-04 12:54 | 44.53902 | 4.78755 | 34046 ft | 437 kts | 335° |
| 2026-05-04 12:55 | 44.59895 | 4.76827 | 34060 ft | 447 kts | 345° |
| 2026-05-04 12:55 | 44.66082 | 4.75549 | 34049 ft | 452 kts | 346° |
| 2026-05-04 12:56 | 44.72267 | 4.74270 | 34048 ft | 452 kts | 346° |
| 2026-05-04 12:56 | 44.78486 | 4.72918 | 34064 ft | 453 kts | 346° |
| 2026-05-04 12:57 | 44.84733 | 4.71527 | 34050 ft | 455 kts | 346° |
| 2026-05-04 12:57 | 44.90986 | 4.70132 | 34058 ft | 455 kts | 346° |
| 2026-05-04 12:58 | 44.97234 | 4.68737 | 34045 ft | 454 kts | 346° |
| 2026-05-04 12:58 | 45.03449 | 4.67348 | 34046 ft | 450 kts | 346° |
| 2026-05-04 12:59 | 45.09624 | 4.65963 | 34037 ft | 448 kts | 346° |
| 2026-05-04 12:59 | 45.15782 | 4.64579 | 34034 ft | 448 kts | 346° |
| 2026-05-04 13:00 | 45.21925 | 4.63190 | 34034 ft | 447 kts | 346° |
| 2026-05-04 13:00 | 45.28075 | 4.61780 | 34028 ft | 449 kts | 346° |
| 2026-05-04 13:01 | 45.34254 | 4.60358 | 34024 ft | 451 kts | 346° |
| 2026-05-04 13:01 | 45.40464 | 4.58929 | 34020 ft | 452 kts | 346° |
| 2026-05-04 13:02 | 45.46665 | 4.57501 | 34016 ft | 452 kts | 346° |
| 2026-05-04 13:02 | 45.52878 | 4.56066 | 34034 ft | 453 kts | 346° |
| 2026-05-04 13:03 | 45.59107 | 4.54624 | 34025 ft | 454 kts | 346° |
| 2026-05-04 13:03 | 45.65349 | 4.53178 | 34023 ft | 454 kts | 347° |
| 2026-05-04 13:04 | 45.71592 | 4.51727 | 34014 ft | 455 kts | 347° |
| 2026-05-04 13:04 | 45.77799 | 4.50282 | 34010 ft | 455 kts | 347° |
| 2026-05-04 13:05 | 45.84047 | 4.48826 | 34001 ft | 455 kts | 347° |
| 2026-05-04 13:05 | 45.90282 | 4.47370 | 34013 ft | 454 kts | 347° |
| 2026-05-04 13:06 | 45.96515 | 4.45912 | 34007 ft | 454 kts | 347° |
| 2026-05-04 13:06 | 46.02751 | 4.44449 | 34012 ft | 454 kts | 347° |
| 2026-05-04 13:07 | 46.09004 | 4.42979 | 34006 ft | 456 kts | 347° |
| 2026-05-04 13:07 | 46.15270 | 4.41504 | 34000 ft | 456 kts | 347° |
| 2026-05-04 13:08 | 46.21538 | 4.40024 | 33993 ft | 457 kts | 347° |
| 2026-05-04 13:08 | 46.27815 | 4.38538 | 33980 ft | 457 kts | 347° |
| 2026-05-04 13:09 | 46.34086 | 4.37049 | 33978 ft | 457 kts | 347° |
| 2026-05-04 13:09 | 46.40348 | 4.35558 | 33985 ft | 457 kts | 347° |
| 2026-05-04 13:10 | 46.46630 | 4.34059 | 33984 ft | 459 kts | 347° |
| 2026-05-04 13:10 | 46.52948 | 4.32549 | 33972 ft | 460 kts | 348° |
| 2026-05-04 13:11 | 46.59252 | 4.31040 | 33982 ft | 459 kts | 348° |
| 2026-05-04 13:11 | 46.65513 | 4.29536 | 33987 ft | 458 kts | 348° |
| 2026-05-04 13:12 | 46.71726 | 4.28043 | 33976 ft | 448 kts | 348° |
| 2026-05-04 13:12 | 46.77850 | 4.26565 | 33985 ft | 446 kts | 348° |
| 2026-05-04 13:12 | 46.80912 | 4.25768 | 33681 ft | 447 kts | 342° |
| 2026-05-04 13:13 | 46.83834 | 4.24360 | 33352 ft | 438 kts | 335° |
| 2026-05-04 13:13 | 46.86642 | 4.22704 | 32932 ft | 434 kts | 333° |
| 2026-05-04 13:13 | 46.89410 | 4.20990 | 32560 ft | 430 kts | 333° |
| 2026-05-04 13:13 | 46.92155 | 4.19289 | 32176 ft | 427 kts | 333° |
| 2026-05-04 13:14 | 46.94893 | 4.17618 | 31807 ft | 425 kts | 334° |
| 2026-05-04 13:14 | 46.97617 | 4.15984 | 31446 ft | 422 kts | 334° |
| 2026-05-04 13:14 | 47.00333 | 4.14374 | 31083 ft | 420 kts | 334° |
| 2026-05-04 13:14 | 47.03033 | 4.12784 | 30719 ft | 417 kts | 334° |
| 2026-05-04 13:15 | 47.05723 | 4.11203 | 30364 ft | 415 kts | 334° |
| 2026-05-04 13:15 | 47.08397 | 4.09632 | 29994 ft | 413 kts | 334° |
| 2026-05-04 13:15 | 47.11057 | 4.08068 | 29571 ft | 411 kts | 334° |
| 2026-05-04 13:15 | 47.13705 | 4.06506 | 29166 ft | 408 kts | 334° |
| 2026-05-04 13:16 | 47.16325 | 4.04961 | 28786 ft | 404 kts | 334° |
| 2026-05-04 13:16 | 47.18928 | 4.03426 | 28414 ft | 401 kts | 334° |
| 2026-05-04 13:16 | 47.21506 | 4.01902 | 28035 ft | 398 kts | 334° |
| 2026-05-04 13:16 | 47.24068 | 4.00386 | 27656 ft | 396 kts | 334° |
| 2026-05-04 13:17 | 47.26613 | 3.98877 | 27289 ft | 393 kts | 334° |
| 2026-05-04 13:17 | 47.29144 | 3.97375 | 26932 ft | 391 kts | 334° |
| 2026-05-04 13:17 | 47.31655 | 3.95884 | 26556 ft | 388 kts | 334° |
| 2026-05-04 13:17 | 47.34153 | 3.94400 | 26204 ft | 386 kts | 334° |
| 2026-05-04 13:18 | 47.36636 | 3.92922 | 25848 ft | 384 kts | 334° |
| 2026-05-04 13:18 | 47.39108 | 3.91450 | 25485 ft | 382 kts | 334° |
| 2026-05-04 13:18 | 47.41565 | 3.89984 | 25132 ft | 380 kts | 334° |
| 2026-05-04 13:18 | 47.43978 | 3.88543 | 24767 ft | 379 kts | 334° |
| 2026-05-04 13:19 | 47.46413 | 3.87087 | 24415 ft | 377 kts | 334° |
| 2026-05-04 13:19 | 47.48057 | 3.86104 | 24167 ft | 377 kts | 334° |
| 2026-05-04 13:19 | 47.51267 | 3.84181 | 23694 ft | 375 kts | 334° |
| 2026-05-04 13:19 | 47.53689 | 3.82729 | 23294 ft | 375 kts | 334° |
| 2026-05-04 13:20 | 47.56099 | 3.81282 | 22903 ft | 373 kts | 333° |
| 2026-05-04 13:20 | 47.58502 | 3.79839 | 22520 ft | 371 kts | 334° |
| 2026-05-04 13:20 | 47.60887 | 3.78405 | 22163 ft | 368 kts | 334° |
| 2026-05-04 13:20 | 47.63252 | 3.76982 | 21810 ft | 366 kts | 334° |
| 2026-05-04 13:21 | 47.65600 | 3.75568 | 21459 ft | 363 kts | 334° |
| 2026-05-04 13:21 | 47.67931 | 3.74162 | 21113 ft | 361 kts | 334° |
| 2026-05-04 13:21 | 47.70248 | 3.72764 | 20767 ft | 358 kts | 334° |
| 2026-05-04 13:21 | 47.72551 | 3.71372 | 20435 ft | 356 kts | 334° |
| 2026-05-04 13:22 | 47.74838 | 3.69988 | 20087 ft | 354 kts | 334° |
| 2026-05-04 13:22 | 47.77113 | 3.68611 | 19752 ft | 352 kts | 334° |
| 2026-05-04 13:22 | 47.79378 | 3.67237 | 19406 ft | 350 kts | 334° |
| 2026-05-04 13:22 | 47.81629 | 3.65872 | 19074 ft | 349 kts | 334° |
| 2026-05-04 13:23 | 47.83869 | 3.64511 | 18729 ft | 347 kts | 334° |
| 2026-05-04 13:23 | 47.86098 | 3.63156 | 18413 ft | 345 kts | 334° |
| 2026-05-04 13:23 | 47.88320 | 3.61805 | 18042 ft | 344 kts | 334° |
| 2026-05-04 13:23 | 47.90523 | 3.60464 | 17676 ft | 342 kts | 334° |
| 2026-05-04 13:24 | 47.92720 | 3.59126 | 17339 ft | 340 kts | 334° |
| 2026-05-04 13:24 | 47.94904 | 3.57794 | 17004 ft | 339 kts | 335° |
| 2026-05-04 13:24 | 47.96979 | 3.56196 | 16632 ft | 332 kts | 317° |
| 2026-05-04 13:25 | 48.00208 | 3.51432 | 16008 ft | 325 kts | 310° |
| 2026-05-04 13:25 | 48.01773 | 3.48995 | 15687 ft | 323 kts | 310° |
| 2026-05-04 13:25 | 48.02800 | 3.47397 | 15468 ft | 322 kts | 310° |
| 2026-05-04 13:25 | 48.04353 | 3.44995 | 15150 ft | 320 kts | 311° |
| 2026-05-04 13:26 | 48.06398 | 3.41844 | 14730 ft | 317 kts | 311° |
| 2026-05-04 13:26 | 48.07436 | 3.40250 | 14520 ft | 316 kts | 311° |
| 2026-05-04 13:26 | 48.09461 | 3.37143 | 14099 ft | 314 kts | 311° |
| 2026-05-04 13:26 | 48.10490 | 3.35565 | 13887 ft | 313 kts | 311° |
| 2026-05-04 13:27 | 48.12006 | 3.33238 | 13544 ft | 312 kts | 311° |
| 2026-05-04 13:27 | 48.13516 | 3.30919 | 13186 ft | 310 kts | 311° |
| 2026-05-04 13:27 | 48.15017 | 3.28612 | 12864 ft | 308 kts | 311° |
| 2026-05-04 13:27 | 48.16487 | 3.26353 | 12552 ft | 305 kts | 312° |
| 2026-05-04 13:28 | 48.17964 | 3.24080 | 12238 ft | 303 kts | 312° |
| 2026-05-04 13:28 | 48.19428 | 3.21825 | 11924 ft | 301 kts | 312° |
| 2026-05-04 13:28 | 48.20882 | 3.19583 | 11619 ft | 299 kts | 313° |
| 2026-05-04 13:28 | 48.22330 | 3.17355 | 11368 ft | 299 kts | 313° |
| 2026-05-04 13:29 | 48.23791 | 3.15104 | 10988 ft | 303 kts | 313° |
| 2026-05-04 13:29 | 48.25261 | 3.12842 | 10673 ft | 302 kts | 313° |
| 2026-05-04 13:29 | 48.26719 | 3.10595 | 10373 ft | 299 kts | 313° |
| 2026-05-04 13:29 | 48.28166 | 3.08361 | 10086 ft | 297 kts | 313° |
| 2026-05-04 13:30 | 48.29583 | 3.06172 | 9959 ft | 288 kts | 313° |
| 2026-05-04 13:30 | 48.30966 | 3.04033 | 9801 ft | 282 kts | 313° |
| 2026-05-04 13:30 | 48.32316 | 3.01945 | 9650 ft | 276 kts | 313° |
| 2026-05-04 13:30 | 48.33653 | 2.99874 | 9520 ft | 276 kts | 313° |
| 2026-05-04 13:31 | 48.34984 | 2.97810 | 9390 ft | 275 kts | 313° |
| 2026-05-04 13:31 | 48.36318 | 2.95741 | 9262 ft | 276 kts | 313° |
| 2026-05-04 13:31 | 48.37662 | 2.93653 | 9142 ft | 279 kts | 313° |
| 2026-05-04 13:31 | 48.39009 | 2.91557 | 8984 ft | 279 kts | 313° |
| 2026-05-04 13:32 | 48.40360 | 2.89460 | 8861 ft | 279 kts | 313° |
| 2026-05-04 13:32 | 48.41707 | 2.87365 | 8712 ft | 278 kts | 313° |
| 2026-05-04 13:32 | 48.43049 | 2.85275 | 8589 ft | 278 kts | 313° |
| 2026-05-04 13:32 | 48.44390 | 2.83182 | 8451 ft | 277 kts | 313° |
| 2026-05-04 13:33 | 48.45429 | 2.80777 | 8289 ft | 275 kts | 288° |
| 2026-05-04 13:33 | 48.45742 | 2.77967 | 8217 ft | 273 kts | 272° |
| 2026-05-04 13:33 | 48.45810 | 2.75099 | 8077 ft | 275 kts | 271° |
| 2026-05-04 13:33 | 48.45869 | 2.72217 | 7919 ft | 276 kts | 271° |
| 2026-05-04 13:34 | 48.45938 | 2.69332 | 7783 ft | 274 kts | 271° |
| 2026-05-04 13:34 | 48.46013 | 2.66497 | 7660 ft | 270 kts | 271° |
| 2026-05-04 13:34 | 48.46091 | 2.63683 | 7515 ft | 268 kts | 272° |
| 2026-05-04 13:34 | 48.46182 | 2.60891 | 7381 ft | 266 kts | 272° |
| 2026-05-04 13:35 | 48.46278 | 2.58117 | 7257 ft | 264 kts | 272° |
| 2026-05-04 13:35 | 48.46474 | 2.52613 | 7021 ft | 263 kts | 272° |
| 2026-05-04 13:35 | 48.46572 | 2.49855 | 6903 ft | 264 kts | 272° |
| 2026-05-04 13:36 | 48.46672 | 2.47077 | 6779 ft | 267 kts | 272° |
| 2026-05-04 13:36 | 48.46776 | 2.44271 | 6653 ft | 269 kts | 273° |
| 2026-05-04 13:36 | 48.46879 | 2.41454 | 6523 ft | 270 kts | 273° |
| 2026-05-04 13:36 | 48.46979 | 2.38630 | 6392 ft | 270 kts | 272° |
| 2026-05-04 13:37 | 48.47080 | 2.35807 | 6263 ft | 270 kts | 272° |
| 2026-05-04 13:37 | 48.47179 | 2.32986 | 6139 ft | 270 kts | 272° |
| 2026-05-04 13:37 | 48.47279 | 2.30164 | 6014 ft | 270 kts | 273° |
| 2026-05-04 13:37 | 48.47386 | 2.27347 | 5901 ft | 269 kts | 273° |
| 2026-05-04 13:38 | 48.47494 | 2.24546 | 5793 ft | 267 kts | 273° |
| 2026-05-04 13:38 | 48.47607 | 2.21776 | 5692 ft | 263 kts | 274° |
| 2026-05-04 13:38 | 48.47722 | 2.19029 | 5569 ft | 263 kts | 273° |
| 2026-05-04 13:38 | 48.47834 | 2.16281 | 5462 ft | 263 kts | 273° |
| 2026-05-04 13:39 | 48.47942 | 2.13533 | 5371 ft | 263 kts | 274° |
| 2026-05-04 13:39 | 48.48053 | 2.10785 | 5278 ft | 262 kts | 273° |
| 2026-05-04 13:39 | 48.48161 | 2.08039 | 5195 ft | 262 kts | 273° |
| 2026-05-04 13:39 | 48.48266 | 2.05312 | 5126 ft | 260 kts | 273° |
| 2026-05-04 13:40 | 48.48382 | 2.02624 | 5075 ft | 262 kts | 274° |
| 2026-05-04 13:40 | 48.48570 | 1.99884 | 5043 ft | 265 kts | 278° |
| 2026-05-04 13:40 | 48.48843 | 1.97116 | 4984 ft | 268 kts | 277° |
| 2026-05-04 13:40 | 48.49005 | 1.94265 | 4949 ft | 270 kts | 274° |
| 2026-05-04 13:41 | 48.49352 | 1.91577 | 4853 ft | 262 kts | 298° |
| 2026-05-04 13:41 | 48.50591 | 1.89649 | 4853 ft | 253 kts | 335° |
| 2026-05-04 13:41 | 48.52268 | 1.89193 | 4850 ft | 249 kts | 7° |
| 2026-05-04 13:42 | 48.55185 | 1.91571 | 4701 ft | 235 kts | 43° |
| 2026-05-04 13:42 | 48.56357 | 1.93239 | 4619 ft | 227 kts | 44° |
| 2026-05-04 13:42 | 48.57486 | 1.94856 | 4515 ft | 220 kts | 44° |
| 2026-05-04 13:42 | 48.58582 | 1.96411 | 4421 ft | 213 kts | 44° |
| 2026-05-04 13:43 | 48.59661 | 1.97932 | 4356 ft | 212 kts | 45° |
| 2026-05-04 13:43 | 48.60602 | 1.99646 | 4289 ft | 213 kts | 56° |
| 2026-05-04 13:43 | 48.61393 | 2.01555 | 4211 ft | 216 kts | 60° |
| 2026-05-04 13:43 | 48.62124 | 2.03556 | 4112 ft | 218 kts | 62° |
| 2026-05-04 13:44 | 48.62823 | 2.05545 | 4027 ft | 208 kts | 62° |
| 2026-05-04 13:44 | 48.63478 | 2.07421 | 3907 ft | 198 kts | 62° |
| 2026-05-04 13:44 | 48.64115 | 2.09244 | 3662 ft | 194 kts | 62° |
| 2026-05-04 13:44 | 48.64738 | 2.11024 | 3410 ft | 190 kts | 62° |
| 2026-05-04 13:45 | 48.65350 | 2.12771 | 3167 ft | 185 kts | 62° |
| 2026-05-04 13:45 | 48.65935 | 2.14440 | 2900 ft | 174 kts | 62° |
| 2026-05-04 13:45 | 48.66491 | 2.16024 | 2679 ft | 169 kts | 62° |
| 2026-05-04 13:45 | 48.67043 | 2.17600 | 2467 ft | 170 kts | 62° |
| 2026-05-04 13:46 | 48.67599 | 2.19183 | 2243 ft | 169 kts | 62° |
| 2026-05-04 13:46 | 48.68144 | 2.20736 | 2023 ft | 164 kts | 62° |
| 2026-05-04 13:46 | 48.68673 | 2.22241 | 1780 ft | 157 kts | 62° |
| 2026-05-04 13:46 | 48.69167 | 2.23645 | 1556 ft | 145 kts | 62° |
| 2026-05-04 13:47 | 48.69637 | 2.24984 | 1370 ft | 146 kts | 63° |
| 2026-05-04 13:47 | 48.70112 | 2.26336 | 1168 ft | 149 kts | 63° |
| 2026-05-04 13:47 | 48.70607 | 2.27740 | 983 ft | 149 kts | 64° |
| 2026-05-04 13:47 | 48.71085 | 2.29100 | 756 ft | 147 kts | 63° |
| 2026-05-04 13:48 | 48.71570 | 2.30464 | 569 ft | 148 kts | 62° |
| 2026-05-04 13:48 | 48.72060 | 2.31857 | 375 ft | 149 kts | 63° |
| 2026-05-04 13:48 | 48.72534 | 2.33194 | 300 ft | 129 kts | 63° |
| 2026-05-04 13:48 | 48.72853 | 2.34103 | 302 ft | 66 kts | 62° |
| 2026-05-04 13:49 | 48.72977 | 2.34478 | 298 ft | 29 kts | 72° |
| 2026-05-04 13:49 | 48.73012 | 2.34763 | 298 ft | 22 kts | 81° |
| 2026-05-04 13:49 | 48.73028 | 2.34943 | 297 ft | 17 kts | 83° |
| 2026-05-04 13:49 | 48.73041 | 2.35111 | 298 ft | 14 kts | 92° |
| 2026-05-04 13:50 | 48.73009 | 2.35238 | 300 ft | 13 kts | 126° |
| 2026-05-04 13:50 | 48.72937 | 2.35311 | 300 ft | 12 kts | 150° |
| 2026-05-04 13:50 | 48.72884 | 2.35410 | 300 ft | 12 kts | 141° |
| 2026-05-04 13:50 | 48.72806 | 2.35452 | 302 ft | 12 kts | 163° |
| 2026-05-04 13:51 | 48.72729 | 2.35484 | 298 ft | 11 kts | 165° |
| 2026-05-04 13:51 | 48.72653 | 2.35517 | 299 ft | 11 kts | 164° |
| 2026-05-04 13:51 | 48.72579 | 2.35550 | 299 ft | 11 kts | 163° |
| 2026-05-04 13:51 | 48.72508 | 2.35581 | 298 ft | 11 kts | 165° |
| 2026-05-04 13:52 | 48.72371 | 2.35637 | 298 ft | 10 kts | 166° |
| 2026-05-04 13:52 | 48.72332 | 2.35713 | 299 ft | 10 kts | 92° |
| 2026-05-04 13:52 | 48.72343 | 2.35813 | 303 ft | 9 kts | 75° |
| 2026-05-04 13:53 | 48.72363 | 2.35906 | 303 ft | 9 kts | 74° |
| 2026-05-04 13:53 | 48.72380 | 2.35998 | 301 ft | 9 kts | 74° |
| 2026-05-04 13:53 | 48.72397 | 2.36090 | 299 ft | 10 kts | 75° |
| 2026-05-04 13:54 | 48.72443 | 2.36335 | 298 ft | 14 kts | 74° |
| 2026-05-04 13:54 | 48.72468 | 2.36473 | 299 ft | 13 kts | 75° |
| 2026-05-04 13:54 | 48.72512 | 2.36707 | 298 ft | 6 kts | 75° |
| 2026-05-04 13:55 | 48.72502 | 2.36728 | 302 ft | 3 kts | 183° |
| 2026-05-04 13:55 | 48.72469 | 2.36711 | 300 ft | 2 kts | 201° |
| 2026-05-04 13:55 | 48.72454 | 2.36702 | 299 ft | 2 kts | 201° |
| 2026-05-04 13:56 | 48.72440 | 2.36694 | 298 ft | 1 kts | 201° |
| 2026-05-04 13:56 | 48.72438 | 2.36693 | 298 ft | 0 kts | 201° |